Time;durP1;ratioP1;P1;durP2;ratioP2;P2;SDS_P1;SDS_P2;PMS_P1;PMS_P2;Temp;Humidity;BMP_temperature;BMP_pressure;BME280_temperature;BME280_humidity;BME280_pressure;Samples;Min_cycle;Max_cycle;Signal;HPM_P1;HPM_P2
2022/08/16 00:01:10;;;;;;;0.82;0.70;;;21.00;99.90;;;;;;6174238;23;20031;-90
2022/08/16 00:03:37;;;;;;;0.68;0.60;;;21.00;99.90;;;;;;6174307;23;20020;-90
2022/08/16 00:06:06;;;;;;;0.50;0.50;;;21.00;99.90;;;;;;6176121;23;20020;-90
2022/08/16 00:08:36;;;;;;;0.80;0.80;;;21.00;99.90;;;;;;6176846;23;20435;-92
2022/08/16 00:11:07;;;;;;;1.10;0.65;;;21.00;99.90;;;;;;6172662;23;20031;-90
2022/08/16 00:13:43;;;;;;;0.65;0.60;;;21.00;99.90;;;;;;6179348;23;20447;-90
2022/08/16 00:16:26;;;;;;;1.00;0.70;;;21.00;99.90;;;;;;6180520;23;20067;-91
2022/08/16 00:19:14;;;;;;;0.80;0.70;;;20.90;99.90;;;;;;6186630;23;20028;-91
2022/08/16 00:21:42;;;;;;;0.75;0.60;;;20.90;99.90;;;;;;6174995;23;20016;-90
2022/08/16 00:24:10;;;;;;;0.73;0.73;;;20.90;99.90;;;;;;6174699;23;20032;-90
2022/08/16 00:26:39;;;;;;;0.75;0.60;;;20.80;99.90;;;;;;6174783;23;20027;-91
2022/08/16 00:29:12;;;;;;;1.00;0.75;;;20.80;99.90;;;;;;6177576;23;20111;-91
2022/08/16 00:31:42;;;;;;;0.82;0.70;;;20.80;99.90;;;;;;6178143;23;20134;-91
2022/08/16 00:34:26;;;;;;;0.60;0.60;;;20.70;99.90;;;;;;6182489;23;20320;-91
2022/08/16 00:37:14;;;;;;;0.60;0.55;;;20.70;99.90;;;;;;6185631;23;20024;-91
2022/08/16 00:39:43;;;;;;;0.70;0.70;;;20.70;99.90;;;;;;6175949;23;20020;-91
2022/08/16 00:42:12;;;;;;;0.60;0.60;;;20.70;99.90;;;;;;6176676;23;20047;-91
2022/08/16 00:44:56;;;;;;;0.60;0.60;;;20.70;99.90;;;;;;6184813;23;20020;-91
2022/08/16 00:47:23;;;;;;;0.73;0.70;;;20.70;99.90;;;;;;6175999;23;20190;-91
2022/08/16 00:49:55;;;;;;;0.73;0.70;;;20.70;99.90;;;;;;6178453;23;20059;-91
2022/08/16 00:52:23;;;;;;;0.85;0.77;;;20.70;99.90;;;;;;6176119;23;20020;-90
2022/08/16 00:54:57;;;;;;;0.60;0.50;;;20.60;99.90;;;;;;6178940;23;20020;-91
2022/08/16 00:57:25;;;;;;;0.52;0.50;;;20.60;99.90;;;;;;6175595;23;20032;-91
2022/08/16 01:00:13;;;;;;;0.80;0.75;;;20.60;99.90;;;;;;6187367;23;20028;-90
2022/08/16 01:02:46;;;;;;;0.90;0.77;;;20.60;99.90;;;;;;6178176;23;20020;-90
2022/08/16 01:05:14;;;;;;;0.77;0.77;;;20.60;99.90;;;;;;6175632;23;20035;-90
2022/08/16 01:07:43;;;;;;;0.63;0.63;;;20.50;99.90;;;;;;6175620;23;20059;-90
2022/08/16 01:10:23;;;;;;;0.70;0.70;;;20.50;99.90;;;;;;6179326;23;20027;-90
2022/08/16 01:13:01;;;;;;;1.88;1.27;;;20.50;99.90;;;;;;6180149;23;20028;-91
2022/08/16 01:15:30;;;;;;;0.98;0.80;;;20.50;99.90;;;;;;6175251;23;20044;-90
2022/08/16 01:17:58;;;;;;;0.90;0.80;;;20.50;99.90;;;;;;6175589;23;20019;-91
2022/08/16 01:20:26;;;;;;;0.70;0.70;;;20.50;99.90;;;;;;6174956;23;20020;-90
2022/08/16 01:23:03;;;;;;;0.70;0.60;;;20.50;99.90;;;;;;6176467;23;20022;-90
2022/08/16 01:25:36;;;;;;;1.00;0.80;;;20.50;99.90;;;;;;6178175;23;20052;-91
2022/08/16 01:28:07;;;;;;;1.10;0.95;;;20.50;99.90;;;;;;6175900;23;20023;-90
2022/08/16 01:46:47;;;;;;;0.50;0.50;;;20.40;99.90;;;;;;6233218;22;20026;-86
2022/08/16 01:49:17;;;;;;;0.77;0.70;;;20.30;99.90;;;;;;6163405;23;20020;-87
2022/08/16 01:51:46;;;;;;;1.02;0.93;;;20.30;99.90;;;;;;6187304;23;20020;-87
2022/08/16 01:54:12;;;;;;;0.88;0.80;;;20.30;99.90;;;;;;6187921;23;20070;-87
2022/08/16 01:56:41;;;;;;;1.10;0.90;;;20.30;99.90;;;;;;6188391;23;20020;-89
2022/08/16 01:59:10;;;;;;;1.02;0.85;;;20.20;99.90;;;;;;6162079;23;20020;-88
2022/08/16 02:01:44;;;;;;;0.90;0.80;;;20.20;99.90;;;;;;6164842;23;20074;-87
2022/08/16 02:04:21;;;;;;;1.30;0.90;;;20.30;99.90;;;;;;6166765;23;20074;-87
2022/08/16 02:07:09;;;;;;;1.02;0.85;;;20.30;99.90;;;;;;6177601;23;20058;-87
2022/08/16 02:09:37;;;;;;;0.75;0.75;;;20.30;99.90;;;;;;6163709;23;20020;-88
2022/08/16 02:12:08;;;;;;;0.57;0.52;;;20.30;99.90;;;;;;6187302;23;20031;-87
2022/08/16 02:14:55;;;;;;;0.60;0.60;;;20.30;99.90;;;;;;6175984;23;20020;-86
2022/08/16 02:17:25;;;;;;;1.10;0.85;;;20.30;99.90;;;;;;6164521;23;20096;-85
2022/08/16 02:19:54;;;;;;;1.38;0.90;;;20.20;99.90;;;;;;6188221;23;20078;-86
2022/08/16 02:22:26;;;;;;;0.77;0.77;;;20.20;99.90;;;;;;6165561;23;20082;-87
2022/08/16 02:25:11;;;;;;;0.57;0.57;;;20.20;99.90;;;;;;6170590;23;20024;-90
2022/08/16 02:27:41;;;;;;;1.20;0.88;;;20.20;99.90;;;;;;6192873;23;20072;-87
2022/08/16 02:30:14;;;;;;;1.00;0.88;;;20.20;99.90;;;;;;6164197;23;20101;-88
2022/08/16 02:33:02;;;;;;;0.73;0.68;;;20.20;99.90;;;;;;6197069;23;20457;-86
2022/08/16 02:35:29;;;;;;;0.73;0.70;;;20.20;99.90;;;;;;6189415;23;20145;-87
2022/08/16 02:37:57;;;;;;;1.30;0.90;;;20.30;99.90;;;;;;6189647;23;20016;-87
2022/08/16 02:40:34;;;;;;;0.68;0.68;;;20.20;99.90;;;;;;6194274;23;20020;-87
2022/08/16 02:43:01;;;;;;;0.73;0.70;;;20.30;99.90;;;;;;6164469;23;20461;-88
2022/08/16 02:45:28;;;;;;;1.65;1.00;;;20.30;99.90;;;;;;6162622;23;20020;-87
2022/08/16 02:47:55;;;;;;;1.10;1.00;;;20.30;99.90;;;;;;6188211;23;20478;-87
2022/08/16 02:50:26;;;;;;;1.20;0.85;;;20.30;99.90;;;;;;6189742;23;20123;-87
2022/08/16 02:53:13;;;;;;;1.00;0.90;;;20.30;99.90;;;;;;6176292;23;20022;-87
2022/08/16 02:55:44;;;;;;;1.20;0.98;;;20.30;99.90;;;;;;6166106;23;20020;-87
2022/08/16 02:58:16;;;;;;;0.80;0.70;;;20.30;99.90;;;;;;6168101;23;20019;-87
2022/08/16 03:00:43;;;;;;;1.13;1.02;;;20.20;99.90;;;;;;6188831;23;20020;-87
2022/08/16 03:03:16;;;;;;;1.30;1.20;;;20.30;99.90;;;;;;6191712;23;20017;-86
2022/08/16 03:05:46;;;;;;;0.90;0.70;;;20.20;99.90;;;;;;6163803;23;20069;-87
2022/08/16 03:08:18;;;;;;;1.00;0.90;;;20.30;99.90;;;;;;6191641;23;20020;-87
2022/08/16 03:11:05;;;;;;;0.80;0.75;;;20.30;99.90;;;;;;6177251;23;20024;-90
2022/08/16 03:13:48;;;;;;;0.77;0.77;;;20.30;99.90;;;;;;6193543;23;20020;-86
2022/08/16 03:16:17;;;;;;;2.85;1.02;;;20.30;99.90;;;;;;6165481;23;20020;-87
2022/08/16 03:19:05;;;;;;;0.70;0.70;;;20.30;99.90;;;;;;6179260;23;20071;-89
2022/08/16 03:21:33;;;;;;;1.00;0.93;;;20.30;99.90;;;;;;6168554;23;20080;-86
2022/08/16 03:24:07;;;;;;;1.50;0.88;;;20.30;99.90;;;;;;6169872;23;20280;-87
2022/08/16 03:26:54;;;;;;;1.13;1.00;;;20.20;99.90;;;;;;6184371;23;20027;-87
2022/08/16 03:29:26;;;;;;;1.38;1.27;;;20.20;99.90;;;;;;6167033;23;20020;-86
2022/08/16 03:31:57;;;;;;;1.00;0.90;;;20.20;99.90;;;;;;6167955;23;20020;-87
2022/08/16 03:34:25;;;;;;;2.03;0.95;;;20.20;99.90;;;;;;6165638;23;20401;-90
2022/08/16 03:36:52;;;;;;;1.20;0.88;;;20.20;99.90;;;;;;6190707;23;20509;-89
2022/08/16 03:39:19;;;;;;;1.05;0.95;;;20.20;99.90;;;;;;6165731;23;20042;-86
2022/08/16 03:41:46;;;;;;;0.70;0.70;;;20.20;99.90;;;;;;6189567;23;20363;-87
2022/08/16 03:44:17;;;;;;;1.25;0.80;;;20.10;99.90;;;;;;6190461;23;20091;-86
2022/08/16 03:47:03;;;;;;;0.95;0.88;;;20.10;99.90;;;;;;6196926;23;20455;-87
2022/08/16 03:49:36;;;;;;;1.10;1.00;;;20.00;99.90;;;;;;6166715;23;20024;-86
2022/08/16 03:52:04;;;;;;;1.10;1.00;;;20.00;99.90;;;;;;6165116;23;20525;-87
2022/08/16 03:54:31;;;;;;;0.65;0.63;;;20.00;99.90;;;;;;6164737;23;20090;-87
2022/08/16 03:57:01;;;;;;;1.20;1.10;;;20.00;99.90;;;;;;6167170;23;20179;-87
2022/08/16 03:59:30;;;;;;;1.08;0.90;;;19.90;99.90;;;;;;6166389;23;20062;-89
2022/08/16 04:01:58;;;;;;;1.10;1.00;;;19.90;99.90;;;;;;6165195;23;20194;-88
2022/08/16 04:04:27;;;;;;;1.10;1.00;;;19.90;99.90;;;;;;6166269;23;20435;-87
2022/08/16 04:07:00;;;;;;;0.85;0.85;;;19.90;99.90;;;;;;6168439;23;20032;-88
2022/08/16 04:09:29;;;;;;;1.02;0.93;;;19.90;99.90;;;;;;6167321;23;20020;-87
2022/08/16 04:12:03;;;;;;;1.48;1.13;;;19.90;99.90;;;;;;6169201;23;20031;-88
2022/08/16 04:14:50;;;;;;;1.02;0.85;;;20.00;99.90;;;;;;6179028;23;20016;-88
2022/08/16 04:17:17;;;;;;;0.95;0.88;;;19.90;99.90;;;;;;6190181;23;20024;-88
2022/08/16 04:19:45;;;;;;;1.10;0.90;;;20.00;99.90;;;;;;6189746;23;20167;-87
2022/08/16 04:22:12;;;;;;;0.73;0.73;;;20.00;99.90;;;;;;6190020;23;20686;-89
2022/08/16 04:24:43;;;;;;;1.13;0.65;;;20.00;99.90;;;;;;6166574;23;20046;-89
2022/08/16 04:27:21;;;;;;;0.93;0.88;;;20.00;99.90;;;;;;6171263;23;20023;-88
2022/08/16 04:29:54;;;;;;;1.40;0.90;;;20.00;99.90;;;;;;6167503;23;20058;-87
2022/08/16 04:32:29;;;;;;;1.00;0.90;;;20.00;99.90;;;;;;6168712;23;20102;-87
2022/08/16 04:34:56;;;;;;;1.13;1.00;;;20.00;99.90;;;;;;6163427;23;20178;-87
2022/08/16 04:37:23;;;;;;;1.20;1.10;;;19.90;99.90;;;;;;6188864;23;20066;-86
2022/08/16 04:39:51;;;;;;;1.17;1.08;;;19.90;99.90;;;;;;6164270;23;20023;-87
2022/08/16 04:42:23;;;;;;;0.90;0.90;;;19.90;99.90;;;;;;6189981;23;20016;-87
2022/08/16 04:44:57;;;;;;;1.00;0.90;;;19.90;99.90;;;;;;6165552;23;20340;-86
2022/08/16 04:47:30;;;;;;;1.02;0.90;;;19.90;99.90;;;;;;6166884;23;20078;-87
2022/08/16 04:50:06;;;;;;;1.40;1.20;;;19.90;99.90;;;;;;6164045;23;20078;-87
2022/08/16 04:52:34;;;;;;;1.10;1.00;;;19.90;99.90;;;;;;6187405;23;20027;-87
2022/08/16 04:55:09;;;;;;;1.00;0.90;;;19.90;99.90;;;;;;6188244;23;20016;-89
2022/08/16 04:57:37;;;;;;;0.98;0.93;;;19.90;99.90;;;;;;6164356;23;20028;-87
2022/08/16 05:00:12;;;;;;;1.15;1.00;;;19.90;99.90;;;;;;6162143;23;20031;-87
2022/08/16 05:03:04;;;;;;;1.33;1.02;;;19.90;99.90;;;;;;6174572;23;20020;-86
2022/08/16 05:05:35;;;;;;;1.38;1.23;;;19.90;99.90;;;;;;6162149;23;20016;-88
2022/08/16 05:08:23;;;;;;;1.50;1.40;;;19.90;99.90;;;;;;6173965;23;20020;-88
2022/08/16 05:11:01;;;;;;;1.27;0.98;;;19.90;99.90;;;;;;6167948;23;20016;-87
2022/08/16 05:13:31;;;;;;;1.67;1.35;;;19.90;99.90;;;;;;6167552;23;20274;-86
2022/08/16 05:16:12;;;;;;;1.65;1.30;;;19.90;99.90;;;;;;6169175;23;20195;-87
2022/08/16 05:18:48;;;;;;;1.08;0.95;;;19.90;99.90;;;;;;6169484;23;20020;-86
2022/08/16 05:21:15;;;;;;;1.27;1.10;;;20.00;99.90;;;;;;6164586;23;20027;-87
2022/08/16 05:23:42;;;;;;;1.00;0.90;;;20.00;99.90;;;;;;6189361;23;20056;-88
2022/08/16 05:26:25;;;;;;;0.70;0.70;;;20.00;99.90;;;;;;6217714;23;20099;-85
2022/08/16 05:28:54;;;;;;;1.23;1.00;;;20.00;99.90;;;;;;6165601;23;20024;-87
2022/08/16 05:31:23;;;;;;;1.42;1.20;;;20.00;99.90;;;;;;6165376;23;20020;-87
2022/08/16 05:33:57;;;;;;;1.45;1.17;;;20.00;99.90;;;;;;6193688;23;20047;-87
2022/08/16 05:36:24;;;;;;;1.20;0.90;;;20.00;99.90;;;;;;6193816;23;20420;-87
2022/08/16 05:39:04;;;;;;;1.40;1.23;;;20.00;99.90;;;;;;6174980;23;20016;-87
2022/08/16 05:41:31;;;;;;;1.52;1.25;;;20.00;99.90;;;;;;6193255;23;20020;-87
2022/08/16 05:44:10;;;;;;;1.45;1.20;;;20.00;99.90;;;;;;6173068;23;20035;-87
2022/08/16 05:46:52;;;;;;;1.33;1.15;;;20.00;99.90;;;;;;6174312;23;20038;-88
2022/08/16 05:49:21;;;;;;;1.33;1.23;;;20.00;99.90;;;;;;6166985;23;20587;-89
2022/08/16 05:51:49;;;;;;;1.30;1.20;;;20.00;99.90;;;;;;6168102;23;20386;-87
2022/08/16 05:54:19;;;;;;;1.08;0.98;;;20.00;99.90;;;;;;6195671;23;20035;-86
2022/08/16 05:56:51;;;;;;;1.40;1.30;;;20.00;99.90;;;;;;6196174;23;20038;-89
2022/08/16 05:59:18;;;;;;;1.00;0.90;;;20.00;99.90;;;;;;6192863;23;20023;-87
2022/08/16 06:01:49;;;;;;;1.10;1.00;;;20.10;99.90;;;;;;6169787;23;20373;-86
2022/08/16 06:04:16;;;;;;;1.45;1.20;;;20.10;99.90;;;;;;6188477;23;20012;-87
2022/08/16 06:07:05;;;;;;;1.08;0.90;;;20.20;99.90;;;;;;6197331;23;20024;-87
2022/08/16 06:09:35;;;;;;;;;;;20.20;99.90;;;;;;6194156;23;20020;-87
2022/08/16 06:12:14;;;;;;;1.20;1.10;;;20.20;99.90;;;;;;6217531;23;19924;-87
2022/08/16 06:15:01;;;;;;;1.27;1.10;;;20.30;99.90;;;;;;6195619;23;20016;-86
2022/08/16 06:17:30;;;;;;;0.98;0.90;;;20.40;99.90;;;;;;6215986;23;20024;-87
2022/08/16 06:20:15;;;;;;;1.20;1.10;;;20.50;99.90;;;;;;6173918;23;20434;-87
2022/08/16 06:22:50;;;;;;;1.15;1.00;;;20.50;99.90;;;;;;6170590;23;20080;-89
2022/08/16 06:25:25;;;;;;;1.00;0.90;;;20.60;99.90;;;;;;6170751;23;20027;-87
2022/08/16 06:28:03;;;;;;;1.00;0.90;;;20.70;99.90;;;;;;6174119;23;20103;-90
2022/08/16 06:30:35;;;;;;;1.20;1.02;;;20.70;99.90;;;;;;6170425;23;20316;-87
2022/08/16 06:33:15;;;;;;;1.30;1.10;;;20.80;99.90;;;;;;6197514;23;20023;-87
2022/08/16 06:35:46;;;;;;;1.80;1.20;;;20.80;99.90;;;;;;6190667;23;20023;-87
2022/08/16 06:38:12;;;;;;;1.00;0.90;;;20.80;99.90;;;;;;6165637;23;20386;-87
2022/08/16 06:41:00;;;;;;;1.10;1.00;;;20.90;99.90;;;;;;6177671;23;20361;-87
2022/08/16 06:43:28;;;;;;;1.23;1.10;;;20.90;99.90;;;;;;6190014;23;20083;-88
2022/08/16 06:45:55;;;;;;;1.20;1.10;;;20.90;99.90;;;;;;6163926;23;20079;-90
2022/08/16 06:48:22;;;;;;;1.08;0.90;;;21.00;99.90;;;;;;6189916;23;20020;-87
2022/08/16 06:51:01;;;;;;;1.00;0.90;;;21.00;99.90;;;;;;6195073;23;20339;-87
2022/08/16 06:53:28;;;;;;;1.35;1.10;;;21.10;99.90;;;;;;6162644;23;20020;-86
2022/08/16 06:55:59;;;;;;;1.65;1.02;;;21.20;99.90;;;;;;6186085;23;20032;-87
2022/08/16 06:58:28;;;;;;;1.00;0.90;;;21.20;99.90;;;;;;6165307;23;20063;-87
2022/08/16 07:01:01;;;;;;;0.95;0.88;;;21.30;99.90;;;;;;6164975;23;20608;-88
2022/08/16 07:03:28;;;;;;;1.10;1.00;;;21.30;99.90;;;;;;6163328;23;20024;-87
2022/08/16 07:05:58;;;;;;;1.60;1.33;;;21.40;99.90;;;;;;6162862;23;20173;-88
2022/08/16 07:08:26;;;;;;;1.20;1.10;;;21.50;99.90;;;;;;6163972;23;20016;-86
2022/08/16 07:10:54;;;;;;;1.40;1.30;;;21.60;99.90;;;;;;6190653;23;20488;-88
2022/08/16 07:13:21;;;;;;;1.40;1.27;;;21.60;99.90;;;;;;6165281;23;20013;-88
2022/08/16 07:16:13;;;;;;;1.27;1.10;;;21.60;99.90;;;;;;6176636;23;20051;-85
2022/08/16 07:18:42;;;;;;;1.30;1.20;;;21.60;99.90;;;;;;6191638;23;20466;-88
2022/08/16 07:21:27;;;;;;;2.22;1.50;;;21.70;99.90;;;;;;6194933;23;20016;-87
2022/08/16 07:24:12;;;;;;;2.08;1.30;;;21.60;99.90;;;;;;6194252;23;20028;-86
2022/08/16 07:26:57;;;;;;;1.50;1.17;;;21.70;99.90;;;;;;6215976;23;20020;-88
2022/08/16 07:29:26;;;;;;;1.60;1.25;;;21.70;99.90;;;;;;6189520;23;20424;-86
2022/08/16 07:31:58;;;;;;;1.95;1.58;;;21.60;99.90;;;;;;6191351;23;20016;-88
2022/08/16 07:34:27;;;;;;;1.50;1.40;;;21.50;99.90;;;;;;6166410;23;20048;-87
2022/08/16 07:37:08;;;;;;;1.52;1.27;;;21.60;99.90;;;;;;6169899;23;20026;-87
2022/08/16 07:39:35;;;;;;;1.55;1.45;;;21.50;99.90;;;;;;6166292;23;20020;-89
2022/08/16 07:42:10;;;;;;;1.50;1.33;;;21.50;99.90;;;;;;6167998;23;20054;-86
2022/08/16 07:44:55;;;;;;;1.42;1.20;;;21.50;99.90;;;;;;6198537;23;20020;-86
2022/08/16 07:47:23;;;;;;;2.05;1.65;;;21.60;99.90;;;;;;6188631;23;20328;-86
2022/08/16 07:49:58;;;;;;;2.13;1.52;;;21.70;99.90;;;;;;6190770;23;20020;-87
2022/08/16 07:52:25;;;;;;;1.80;1.60;;;21.70;99.90;;;;;;6188295;23;20040;-87
2022/08/16 07:54:56;;;;;;;1.70;1.60;;;21.90;99.90;;;;;;6165968;23;20024;-86
2022/08/16 07:57:23;;;;;;;1.65;1.55;;;21.90;99.90;;;;;;6163893;23;20016;-87
2022/08/16 07:59:50;;;;;;;1.48;1.38;;;22.00;99.90;;;;;;6162126;23;20432;-84
2022/08/16 08:02:17;;;;;;;2.13;1.45;;;22.10;99.90;;;;;;6164130;23;20031;-86
2022/08/16 08:04:46;;;;;;;1.30;1.20;;;22.30;99.90;;;;;;6189947;23;20080;-90
2022/08/16 08:07:14;;;;;;;1.10;1.00;;;22.30;99.90;;;;;;6166949;23;20016;-89
2022/08/16 08:09:42;;;;;;;1.40;1.10;;;22.50;99.90;;;;;;6166980;23;20099;-87
2022/08/16 08:12:13;;;;;;;1.58;1.20;;;22.50;99.90;;;;;;6170999;23;20031;-86
2022/08/16 08:15:01;;;;;;;1.48;1.20;;;22.60;99.90;;;;;;6200479;23;20127;-87
2022/08/16 08:17:29;;;;;;;1.42;1.10;;;22.50;99.90;;;;;;6173328;23;20023;-86
2022/08/16 08:20:11;;;;;;;1.98;1.50;;;22.50;99.90;;;;;;6178611;23;20031;-88
2022/08/16 08:22:46;;;;;;;1.20;0.95;;;22.50;99.90;;;;;;6176659;23;20358;-87
2022/08/16 08:25:17;;;;;;;1.55;1.13;;;22.50;99.90;;;;;;6171253;23;20022;-89
2022/08/16 08:27:45;;;;;;;1.08;0.98;;;22.50;99.90;;;;;;6194313;23;20035;-87
2022/08/16 08:30:14;;;;;;;1.90;1.30;;;22.50;99.90;;;;;;6172313;23;20055;-87
2022/08/16 08:33:01;;;;;;;1.25;1.13;;;22.60;99.90;;;;;;6183107;23;20096;-88
2022/08/16 08:35:31;;;;;;;1.48;1.38;;;22.60;99.90;;;;;;6170933;23;20027;-87
2022/08/16 08:37:59;;;;;;;1.15;1.05;;;22.60;99.90;;;;;;6171771;23;20050;-88
2022/08/16 08:40:27;;;;;;;1.20;1.00;;;22.70;99.90;;;;;;6168981;23;20078;-87
2022/08/16 08:42:56;;;;;;;1.50;1.40;;;22.70;99.90;;;;;;6194191;23;20051;-88
2022/08/16 08:45:27;;;;;;;1.50;1.20;;;22.70;99.90;;;;;;6192788;23;20092;-87
2022/08/16 08:48:15;;;;;;;1.08;0.98;;;22.70;99.90;;;;;;6191367;23;20027;-88
2022/08/16 08:51:01;;;;;;;1.13;1.02;;;22.70;99.90;;;;;;6190555;23;20100;-86
2022/08/16 08:53:31;;;;;;;1.50;1.40;;;22.70;99.90;;;;;;6161330;23;20023;-87
2022/08/16 08:56:00;;;;;;;1.48;1.35;;;22.60;99.90;;;;;;6162102;23;20082;-87
2022/08/16 08:58:47;;;;;;;1.42;1.23;;;22.70;99.90;;;;;;6170751;23;20103;-86
2022/08/16 09:01:31;;;;;;;1.90;1.67;;;22.60;99.90;;;;;;6186551;23;20019;-85
2022/08/16 09:04:06;;;;;;;1.85;1.40;;;22.60;99.90;;;;;;6164402;23;20028;-91
2022/08/16 09:06:34;;;;;;;1.73;1.30;;;22.60;99.90;;;;;;6161388;23;20089;-86
2022/08/16 09:09:08;;;;;;;1.00;0.90;;;22.60;99.90;;;;;;6164115;23;20021;-85
2022/08/16 09:11:43;;;;;;;1.00;0.90;;;22.60;99.90;;;;;;6187390;23;20017;-87
2022/08/16 09:14:15;;;;;;;1.10;0.93;;;22.70;99.90;;;;;;6186236;23;20047;-85
2022/08/16 09:16:51;;;;;;;1.50;1.20;;;22.90;99.90;;;;;;6212504;23;20028;-85
2022/08/16 09:19:38;;;;;;;1.30;1.20;;;22.90;99.90;;;;;;6172936;23;20016;-85
2022/08/16 09:22:10;;;;;;;0.80;0.80;;;22.80;99.90;;;;;;6168360;23;20020;-89
2022/08/16 09:24:47;;;;;;;1.38;1.17;;;22.70;99.90;;;;;;6168772;23;20072;-88
2022/08/16 09:27:20;;;;;;;0.80;0.80;;;22.60;99.90;;;;;;6204282;23;20035;-85
2022/08/16 09:29:51;;;;;;;1.55;1.45;;;22.60;99.90;;;;;;6202839;23;20028;-87
2022/08/16 09:32:28;;;;;;;1.30;1.10;;;22.50;99.90;;;;;;6180930;23;20021;-90
2022/08/16 09:34:57;;;;;;;1.08;0.90;;;22.30;99.90;;;;;;6178701;23;20045;-89
2022/08/16 09:37:29;;;;;;;1.10;1.00;;;22.20;99.90;;;;;;6180419;23;20009;-91
2022/08/16 09:40:04;;;;;;;1.17;1.08;;;21.90;99.90;;;;;;6181840;23;20023;-93
2022/08/16 09:42:54;;;;;;;2.13;1.30;;;21.50;99.90;;;;;;6190602;23;20075;-90
2022/08/16 09:45:27;;;;;;;0.80;0.80;;;21.20;99.90;;;;;;6182359;23;20040;-91
2022/08/16 09:47:55;;;;;;;1.00;0.80;;;21.00;99.90;;;;;;6179535;23;20020;-92
2022/08/16 09:50:25;;;;;;;1.58;1.00;;;20.90;99.90;;;;;;6174990;23;20033;-93
2022/08/16 09:53:07;;;;;;;1.13;0.98;;;20.80;99.90;;;;;;6179705;23;20031;-88
2022/08/16 09:55:43;;;;;;;1.35;1.00;;;21.00;99.90;;;;;;6184000;23;20021;-93
2022/08/16 09:58:14;;;;;;;1.92;1.10;;;21.00;99.90;;;;;;6176374;23;20024;-93
2022/08/16 10:01:01;;;;;;;0.77;0.77;;;21.10;99.90;;;;;;6183682;23;20448;-89
2022/08/16 10:03:29;;;;;;;1.27;0.90;;;21.10;99.90;;;;;;6179277;23;20021;-92
2022/08/16 10:05:56;;;;;;;1.02;0.90;;;21.10;99.90;;;;;;6179318;23;20016;-88
2022/08/16 10:08:23;;;;;;;1.10;1.00;;;21.10;99.90;;;;;;6169676;23;20048;-91
2022/08/16 10:13:40;;;;;;;0.82;0.80;;;21.20;99.90;;;;;;6200478;23;20397;-91
2022/08/16 10:16:07;;;;;;;1.08;0.88;;;21.10;99.90;;;;;;6172102;23;20186;-94
2022/08/16 10:18:35;;;;;;;1.00;0.85;;;21.10;99.90;;;;;;6171348;23;20032;-89
2022/08/16 10:21:22;;;;;;;0.80;0.80;;;21.00;99.90;;;;;;6179714;23;20024;-89
2022/08/16 10:23:53;;;;;;;1.02;0.90;;;21.00;99.90;;;;;;6170224;23;20027;-90
2022/08/16 10:26:23;;;;;;;2.25;1.20;;;20.80;99.90;;;;;;6172839;23;20148;-89
2022/08/16 10:29:10;;;;;;;2.20;1.30;;;20.60;99.90;;;;;;6169180;23;20071;-88
2022/08/16 10:31:46;;;;;;;1.08;0.98;;;20.50;99.90;;;;;;6163504;23;20016;-89
2022/08/16 10:34:20;;;;;;;1.05;0.95;;;20.30;99.90;;;;;;6163725;23;20021;-89
2022/08/16 10:36:59;;;;;;;2.17;1.40;;;20.10;99.90;;;;;;6163989;23;20017;-90
2022/08/16 10:39:27;;;;;;;1.35;1.10;;;20.00;99.90;;;;;;6160125;23;20017;-89
2022/08/16 10:42:09;;;;;;;1.85;0.93;;;19.90;99.90;;;;;;6167471;23;20017;-89
2022/08/16 10:44:39;;;;;;;1.75;1.30;;;19.80;99.90;;;;;;6163431;23;20111;-89
2022/08/16 10:47:08;;;;;;;1.48;1.08;;;19.60;99.90;;;;;;6167268;23;20099;-86
2022/08/16 10:49:37;;;;;;;0.98;0.88;;;19.40;99.90;;;;;;6165912;23;20091;-89
2022/08/16 10:52:05;;;;;;;1.65;1.10;;;19.30;99.90;;;;;;6166895;23;20519;-89
2022/08/16 10:54:45;;;;;;;1.45;1.00;;;19.30;99.90;;;;;;6172792;23;20019;-89
2022/08/16 10:57:32;;;;;;;1.40;1.10;;;19.30;99.90;;;;;;6177002;23;20363;-90
2022/08/16 11:00:03;;;;;;;1.00;0.90;;;19.30;99.90;;;;;;6166046;23;20323;-91
2022/08/16 11:02:30;;;;;;;1.00;0.90;;;19.30;99.90;;;;;;6167666;23;20016;-90
2022/08/16 11:05:17;;;;;;;1.05;0.95;;;19.40;99.90;;;;;;6177918;23;20347;-88
2022/08/16 11:07:48;;;;;;;1.27;1.10;;;19.40;99.90;;;;;;6194168;23;20379;-89
2022/08/16 11:10:35;;;;;;;1.50;1.10;;;19.40;99.90;;;;;;6179557;23;20070;-87
2022/08/16 11:13:25;;;;;;;0.80;0.80;;;19.50;99.90;;;;;;6179877;23;20347;-90
2022/08/16 11:16:13;;;;;;;1.27;0.90;;;19.50;99.90;;;;;;6180078;23;20020;-89
2022/08/16 11:19:00;;;;;;;1.25;1.05;;;19.50;99.90;;;;;;6179065;23;20529;-88
2022/08/16 11:21:44;;;;;;;1.63;1.15;;;19.40;99.90;;;;;;6175905;23;20024;-88
2022/08/16 11:24:31;;;;;;;0.95;0.75;;;19.40;99.90;;;;;;6178799;23;20056;-85
2022/08/16 11:27:12;;;;;;;0.80;0.70;;;19.40;99.90;;;;;;6173137;23;20366;-89
2022/08/16 11:29:52;;;;;;;1.35;0.90;;;19.40;99.90;;;;;;6173750;23;20031;-86
2022/08/16 11:32:23;;;;;;;0.60;0.60;;;19.40;99.90;;;;;;6168715;23;20019;-86
2022/08/16 11:35:01;;;;;;;1.10;0.85;;;19.50;99.90;;;;;;6173651;23;20074;-88
2022/08/16 11:37:40;;;;;;;1.02;0.73;;;19.70;99.90;;;;;;6198804;23;20020;-88
2022/08/16 11:40:33;;;;;;;0.52;0.52;;;20.10;99.90;;;;;;6185553;23;20017;-89
2022/08/16 11:43:02;;;;;;;0.50;0.50;;;20.40;99.90;;;;;;6198326;23;20094;-88
2022/08/16 11:45:31;;;;;;;0.68;0.47;;;20.80;99.90;;;;;;6169166;23;20027;-88
2022/08/16 11:48:02;;;;;;;0.40;0.40;;;21.20;99.90;;;;;;6173071;23;20039;-88
2022/08/16 11:50:32;;;;;;;0.87;0.63;;;21.40;99.90;;;;;;6173542;23;20066;-90
2022/08/16 11:53:00;;;;;;;0.50;0.50;;;21.70;99.90;;;;;;6169604;23;20023;-88
2022/08/16 11:55:29;;;;;;;0.60;0.52;;;21.90;99.90;;;;;;6169932;23;20059;-87
2022/08/16 11:57:57;;;;;;;0.77;0.60;;;22.00;99.90;;;;;;6169332;23;20107;-86
2022/08/16 12:00:26;;;;;;;0.50;0.50;;;22.00;99.90;;;;;;6170366;23;20036;-84
2022/08/16 12:03:13;;;;;;;0.32;0.32;;;22.00;99.90;;;;;;6182922;23;20026;-86
2022/08/16 12:05:42;;;;;;;0.65;0.55;;;22.00;99.90;;;;;;6170078;23;20043;-87
2022/08/16 12:08:10;;;;;;;0.60;0.60;;;22.10;99.90;;;;;;6194456;23;20099;-87
2022/08/16 12:10:38;;;;;;;0.98;0.60;;;22.60;99.90;;;;;;6169288;23;20455;-86
2022/08/16 12:13:08;;;;;;;0.75;0.75;;;22.90;99.90;;;;;;6166958;23;20016;-86
2022/08/16 12:15:36;;;;;;;1.17;0.68;;;23.20;99.90;;;;;;6167694;23;20372;-88
2022/08/16 12:18:03;;;;;;;0.57;0.47;;;23.50;99.90;;;;;;6168959;23;20020;-88
2022/08/16 12:20:35;;;;;;;0.40;0.40;;;23.70;99.90;;;;;;6169410;23;20336;-87
2022/08/16 12:23:03;;;;;;;0.50;0.50;;;23.80;99.90;;;;;;6195260;23;20443;-88
2022/08/16 12:25:32;;;;;;;0.40;0.40;;;23.80;99.90;;;;;;6193444;23;20072;-88
2022/08/16 12:28:02;;;;;;;0.45;0.40;;;23.80;99.90;;;;;;6169230;23;20195;-89
2022/08/16 12:30:34;;;;;;;0.20;0.20;;;23.90;99.90;;;;;;6196010;23;20094;-88
2022/08/16 12:33:05;;;;;;;0.50;0.50;;;23.90;99.90;;;;;;6193271;23;20089;-88
2022/08/16 12:35:34;;;;;;;0.50;0.45;;;23.80;99.90;;;;;;6166611;23;20448;-89
2022/08/16 12:38:01;;;;;;;0.38;0.38;;;23.80;99.90;;;;;;6167532;23;20024;-87
2022/08/16 12:40:49;;;;;;;0.50;0.50;;;23.90;99.90;;;;;;6179605;23;20024;-87
2022/08/16 12:43:24;;;;;;;0.50;0.50;;;24.10;99.90;;;;;;6194183;23;20042;-86
2022/08/16 12:45:52;;;;;;;0.40;0.40;;;24.40;99.90;;;;;;6162263;23;20102;-87
2022/08/16 12:51:33;;;;;;;0.32;0.32;;;24.60;99.90;;;;;;6101357;23;20062;-88
2022/08/16 12:54:26;;;;;;;0.20;0.20;;;24.60;99.90;;;;;;6102067;23;20034;-87
2022/08/16 12:56:55;;;;;;;0.60;0.40;;;24.50;99.90;;;;;;6151787;23;20325;-86
2022/08/16 12:59:22;;;;;;;0.40;0.40;;;24.40;99.90;;;;;;6172080;23;20365;-88
2022/08/16 13:01:49;;;;;;;0.30;0.30;;;24.30;99.90;;;;;;6197877;23;20027;-88
2022/08/16 13:04:25;;;;;;;0.20;0.20;;;24.30;99.90;;;;;;6175964;23;20047;-86
2022/08/16 13:06:52;;;;;;;0.15;0.15;;;24.10;99.90;;;;;;6199850;23;20091;-89
2022/08/16 13:09:23;;;;;;;0.38;0.38;;;24.00;99.90;;;;;;6178534;23;20096;-89
2022/08/16 13:12:17;;;;;;;0.55;0.30;;;24.00;99.90;;;;;;6204997;23;20392;-87
2022/08/16 13:14:58;;;;;;;0.20;0.20;;;23.90;99.90;;;;;;6210265;23;20020;-88
2022/08/16 13:17:25;;;;;;;0.30;0.30;;;23.80;99.90;;;;;;6179582;23;20074;-88
2022/08/16 13:19:56;;;;;;;0.10;0.10;;;23.70;99.90;;;;;;6179033;23;20051;-89
2022/08/16 13:22:53;;;;;;;0.30;0.30;;;23.70;99.90;;;;;;6205871;23;20020;-88
2022/08/16 13:25:22;;;;;;;0.20;0.20;;;23.50;99.90;;;;;;6178790;23;20020;-88
2022/08/16 13:27:52;;;;;;;0.40;0.30;;;23.50;99.90;;;;;;6179061;23;20027;-87
2022/08/16 13:30:51;;;;;;;;;;;23.70;99.90;;;;;;6233944;23;20025;-89
2022/08/16 13:33:29;;;;;;;0.47;0.47;;;24.00;99.90;;;;;;6228887;23;19962;-89
2022/08/16 13:36:19;;;;;;;0.52;0.43;;;24.40;99.90;;;;;;6182455;23;20027;-87
2022/08/16 13:39:06;;;;;;;0.30;0.28;;;24.60;99.90;;;;;;6208390;23;20070;-88
2022/08/16 13:41:34;;;;;;;0.30;0.28;;;24.90;99.90;;;;;;6194677;23;20112;-88
2022/08/16 13:44:02;;;;;;;0.20;0.20;;;25.10;99.90;;;;;;6172556;23;20332;-88